Great Falls, MT

7:32 PM MDT on September 30, 2014 (GMT -0600)
6S Great Falls | Change Station
CLOSE
Current Station
Personal Weather Station
Location: Great Falls, MT
Elevation: 3510 ft
Nearby Weather Stations

Elev 3510 ft 47.43 °N, 111.32 °W | Updated 0 second ago

Overcast
Overcast
51.1 °F
Feels Like 51.1 °F
N
4.3
Wind Variable Wind from NW
Gusts 6.3 mph

Today
High -- | Low -- °F
--% Chance of Precip.
Yesterday
High -- | Low -- °F
Precip. -- in
7:23 AM 7:06 PM
Waxing Crescent, 42% visible
Pressure 29.82 in
Visibility 10.0 miles
Clouds Mostly Cloudy 1500 ft
Mostly Cloudy 5500 ft
Overcast 10000 ft
Dew Point 46 °F
Humidity 83%
Rainfall 0.05 in
Snow Depth 0 in , 0 in , 0 in
UV 0 out of 12
Pollen 5.50 out of 12
Air Quality Not available.
Flu Activity Not available.
SPECI KGTF 010126Z 33007KT 10SM BKN015 BKN055 OVC100 10/08 A2982 RMK AO2 RAB04E13 P0000

More Conditions Fewer Conditions

Pressure 29.82 in
Visibility 10.0 miles
Clouds Mostly Cloudy 1500 ft
Mostly Cloudy 5500 ft
Overcast 10000 ft
Dew Point 46 °F
Humidity 83%
Rainfall 0.05 in
Snow Depth 0 in , 0 in , 0 in
UV 0 out of 12
Pollen 5.50 out of 12
Air Quality Not available.
Flu Activity Not available.
SPECI KGTF 010126Z 33007KT 10SM BKN015 BKN055 OVC100 10/08 A2982 RMK AO2 RAB04E13 P0000

More Conditions Fewer Conditions

10-Day Weather Forecast

Almanac

Astronomy

Sep. 30, 2014 Rise Set
Actual Time 7:23 AM MDT 7:06 PM MDT
Civil Twilight 6:52 AM MDT 7:37 PM MDT
Nautical Twilight 6:16 AM MDT 8:12 PM MDT
Astronomical Twilight 5:40 AM MDT 8:49 PM MDT
Moon 1:53 PM MDT (9/30) 11:21 PM MDT (9/30)
Length of Visible Light 12h 44m
Length of Day
11h 43m
Tomorrow will be 3m 24s shorter.
Waxing Crescent, 42% of the Moon is Illuminated
Today
Waxing Crescent
Oct 1
First Quarter
Oct 8
Full
Oct 15
Last Quarter
Oct 23
New

Today's Extremes

State Highs State Lows

Community

WunderPhotos

Upload Photos

1,757,821 photos uploaded!

Nearby

Snow Depth

Station Depth Elevation
South Fork Shields 0 in 8100 ft
Twin Lakes 0 in 6400 ft
Divide 0 in 7800 ft
Darkhorse Lake 0 in 8700 ft
Cole Creek 1 in 7850 ft

Earthquake Activity

City Distance Mag. Time & Date
No recent earthquake activity has been reported nearby.
Minimum magnitude displayed is 2.5.

Coastal Water Temperatures

Place Temperature
No Stations Reporting

Nearby Weather Stations